sensor_id;sensor_type;location;lat;lon;timestamp;temperature;humidity
4687;DHT22;2357;47.316;-1.348;2023-08-24T00:00:24;27.60;99.90
4687;DHT22;2357;47.316;-1.348;2023-08-24T00:02:49;27.60;99.90
4687;DHT22;2357;47.316;-1.348;2023-08-24T00:05:15;27.50;99.90
4687;DHT22;2357;47.316;-1.348;2023-08-24T00:07:41;27.50;99.90
4687;DHT22;2357;47.316;-1.348;2023-08-24T00:10:07;27.50;99.90
4687;DHT22;2357;47.316;-1.348;2023-08-24T00:12:33;27.50;99.90
4687;DHT22;2357;47.316;-1.348;2023-08-24T00:14:59;27.40;99.90
4687;DHT22;2357;47.316;-1.348;2023-08-24T00:17:25;27.40;99.90
4687;DHT22;2357;47.316;-1.348;2023-08-24T00:19:50;27.40;99.90
4687;DHT22;2357;47.316;-1.348;2023-08-24T00:22:16;27.40;99.90
4687;DHT22;2357;47.316;-1.348;2023-08-24T00:24:41;27.30;99.90
4687;DHT22;2357;47.316;-1.348;2023-08-24T00:27:07;27.30;99.90
4687;DHT22;2357;47.316;-1.348;2023-08-24T00:29:33;27.30;99.90
4687;DHT22;2357;47.316;-1.348;2023-08-24T00:31:58;27.30;99.90
4687;DHT22;2357;47.316;-1.348;2023-08-24T00:34:24;27.20;99.90
4687;DHT22;2357;47.316;-1.348;2023-08-24T00:36:49;27.20;99.90
4687;DHT22;2357;47.316;-1.348;2023-08-24T00:39:15;27.20;99.90
4687;DHT22;2357;47.316;-1.348;2023-08-24T00:41:42;27.20;99.90
4687;DHT22;2357;47.316;-1.348;2023-08-24T00:44:07;27.10;99.90
4687;DHT22;2357;47.316;-1.348;2023-08-24T00:46:34;27.10;99.90
4687;DHT22;2357;47.316;-1.348;2023-08-24T00:49:00;27.10;99.90
4687;DHT22;2357;47.316;-1.348;2023-08-24T00:51:26;27.10;99.90
4687;DHT22;2357;47.316;-1.348;2023-08-24T00:53:52;27.10;99.90
4687;DHT22;2357;47.316;-1.348;2023-08-24T00:56:18;27.00;99.90
4687;DHT22;2357;47.316;-1.348;2023-08-24T00:58:50;27.00;99.90
4687;DHT22;2357;47.316;-1.348;2023-08-24T01:01:17;27.00;99.90
4687;DHT22;2357;47.316;-1.348;2023-08-24T01:03:43;27.00;99.90
4687;DHT22;2357;47.316;-1.348;2023-08-24T01:06:09;27.00;99.90
4687;DHT22;2357;47.316;-1.348;2023-08-24T01:08:35;27.00;99.90
4687;DHT22;2357;47.316;-1.348;2023-08-24T01:11:15;26.90;99.90
4687;DHT22;2357;47.316;-1.348;2023-08-24T01:13:57;26.90;99.90
4687;DHT22;2357;47.316;-1.348;2023-08-24T01:16:29;26.90;99.90
4687;DHT22;2357;47.316;-1.348;2023-08-24T01:18:59;26.90;99.90
4687;DHT22;2357;47.316;-1.348;2023-08-24T01:21:26;26.90;99.90
4687;DHT22;2357;47.316;-1.348;2023-08-24T01:24:14;26.90;99.90
4687;DHT22;2357;47.316;-1.348;2023-08-24T01:26:44;26.90;99.90
4687;DHT22;2357;47.316;-1.348;2023-08-24T01:29:11;26.80;99.90
4687;DHT22;2357;47.316;-1.348;2023-08-24T01:31:37;26.80;99.90
4687;DHT22;2357;47.316;-1.348;2023-08-24T01:34:03;26.80;99.90
4687;DHT22;2357;47.316;-1.348;2023-08-24T01:36:29;26.80;99.90
4687;DHT22;2357;47.316;-1.348;2023-08-24T01:39:52;26.80;99.90
4687;DHT22;2357;47.316;-1.348;2023-08-24T01:42:22;26.70;99.90
4687;DHT22;2357;47.316;-1.348;2023-08-24T01:44:52;26.70;99.90
4687;DHT22;2357;47.316;-1.348;2023-08-24T01:47:20;26.70;99.90
4687;DHT22;2357;47.316;-1.348;2023-08-24T01:49:46;26.70;99.90
4687;DHT22;2357;47.316;-1.348;2023-08-24T01:52:12;26.60;99.90
4687;DHT22;2357;47.316;-1.348;2023-08-24T01:54:39;26.70;99.90
4687;DHT22;2357;47.316;-1.348;2023-08-24T01:57:05;26.60;99.90
4687;DHT22;2357;47.316;-1.348;2023-08-24T01:59:31;26.60;99.90
4687;DHT22;2357;47.316;-1.348;2023-08-24T02:01:57;26.60;99.90
4687;DHT22;2357;47.316;-1.348;2023-08-24T02:04:23;26.50;99.90
4687;DHT22;2357;47.316;-1.348;2023-08-24T02:06:48;26.50;99.90
4687;DHT22;2357;47.316;-1.348;2023-08-24T02:09:14;26.50;99.90
4687;DHT22;2357;47.316;-1.348;2023-08-24T02:11:39;26.50;99.90
4687;DHT22;2357;47.316;-1.348;2023-08-24T02:14:05;26.40;99.90
4687;DHT22;2357;47.316;-1.348;2023-08-24T02:16:31;26.30;99.90
4687;DHT22;2357;47.316;-1.348;2023-08-24T02:18:56;26.20;99.90
4687;DHT22;2357;47.316;-1.348;2023-08-24T02:21:22;26.30;99.90
4687;DHT22;2357;47.316;-1.348;2023-08-24T02:23:48;26.30;99.90
4687;DHT22;2357;47.316;-1.348;2023-08-24T02:26:13;26.30;99.90
4687;DHT22;2357;47.316;-1.348;2023-08-24T02:28:39;26.30;99.90
4687;DHT22;2357;47.316;-1.348;2023-08-24T02:31:05;26.30;99.90
4687;DHT22;2357;47.316;-1.348;2023-08-24T02:33:31;26.30;99.90
4687;DHT22;2357;47.316;-1.348;2023-08-24T02:35:57;26.30;99.90
4687;DHT22;2357;47.316;-1.348;2023-08-24T02:38:25;26.30;99.90
4687;DHT22;2357;47.316;-1.348;2023-08-24T02:41:04;26.30;99.90
4687;DHT22;2357;47.316;-1.348;2023-08-24T02:43:30;26.30;99.90
4687;DHT22;2357;47.316;-1.348;2023-08-24T02:46:03;26.30;99.90
4687;DHT22;2357;47.316;-1.348;2023-08-24T02:48:30;26.30;99.90
4687;DHT22;2357;47.316;-1.348;2023-08-24T02:51:00;26.30;99.90
4687;DHT22;2357;47.316;-1.348;2023-08-24T02:53:26;26.30;99.90
4687;DHT22;2357;47.316;-1.348;2023-08-24T02:55:55;26.30;99.90
4687;DHT22;2357;47.316;-1.348;2023-08-24T02:58:21;26.20;99.90
4687;DHT22;2357;47.316;-1.348;2023-08-24T03:00:47;26.20;99.90
4687;DHT22;2357;47.316;-1.348;2023-08-24T03:03:14;26.20;99.90
4687;DHT22;2357;47.316;-1.348;2023-08-24T03:05:40;26.20;99.90
4687;DHT22;2357;47.316;-1.348;2023-08-24T03:08:06;26.20;99.90
4687;DHT22;2357;47.316;-1.348;2023-08-24T03:10:35;26.20;99.90
4687;DHT22;2357;47.316;-1.348;2023-08-24T03:13:00;26.20;99.90
4687;DHT22;2357;47.316;-1.348;2023-08-24T03:15:26;26.20;99.90
4687;DHT22;2357;47.316;-1.348;2023-08-24T03:17:52;26.20;99.90
4687;DHT22;2357;47.316;-1.348;2023-08-24T03:20:18;26.20;99.90
4687;DHT22;2357;47.316;-1.348;2023-08-24T03:22:44;26.20;99.90
4687;DHT22;2357;47.316;-1.348;2023-08-24T03:25:10;26.10;99.90
4687;DHT22;2357;47.316;-1.348;2023-08-24T03:27:37;26.10;99.90
4687;DHT22;2357;47.316;-1.348;2023-08-24T03:30:03;26.10;99.90
4687;DHT22;2357;47.316;-1.348;2023-08-24T03:32:29;26.10;99.90
4687;DHT22;2357;47.316;-1.348;2023-08-24T03:34:59;26.00;99.90
4687;DHT22;2357;47.316;-1.348;2023-08-24T03:37:25;26.00;99.90
4687;DHT22;2357;47.316;-1.348;2023-08-24T03:39:51;26.00;99.90
4687;DHT22;2357;47.316;-1.348;2023-08-24T03:42:16;25.90;99.90
4687;DHT22;2357;47.316;-1.348;2023-08-24T03:44:42;26.00;99.90
4687;DHT22;2357;47.316;-1.348;2023-08-24T03:47:07;25.90;99.90
4687;DHT22;2357;47.316;-1.348;2023-08-24T03:49:34;25.90;99.90
4687;DHT22;2357;47.316;-1.348;2023-08-24T03:51:59;25.90;99.90
4687;DHT22;2357;47.316;-1.348;2023-08-24T03:54:25;25.90;99.90
4687;DHT22;2357;47.316;-1.348;2023-08-24T03:56:51;25.90;99.90
4687;DHT22;2357;47.316;-1.348;2023-08-24T03:59:16;25.80;99.90
4687;DHT22;2357;47.316;-1.348;2023-08-24T04:01:42;25.90;99.90
4687;DHT22;2357;47.316;-1.348;2023-08-24T04:04:08;25.80;99.90
4687;DHT22;2357;47.316;-1.348;2023-08-24T04:06:33;25.80;99.90
4687;DHT22;2357;47.316;-1.348;2023-08-24T04:08:59;25.80;99.90
4687;DHT22;2357;47.316;-1.348;2023-08-24T04:11:25;25.70;99.90
4687;DHT22;2357;47.316;-1.348;2023-08-24T04:13:50;25.70;99.90
4687;DHT22;2357;47.316;-1.348;2023-08-24T04:16:16;25.70;99.90
4687;DHT22;2357;47.316;-1.348;2023-08-24T04:18:42;25.60;99.90
4687;DHT22;2357;47.316;-1.348;2023-08-24T04:21:07;25.70;99.90
4687;DHT22;2357;47.316;-1.348;2023-08-24T04:23:33;25.60;99.90
4687;DHT22;2357;47.316;-1.348;2023-08-24T04:25:58;25.60;99.90
4687;DHT22;2357;47.316;-1.348;2023-08-24T04:28:24;25.60;99.90
4687;DHT22;2357;47.316;-1.348;2023-08-24T04:30:51;25.60;99.90
4687;DHT22;2357;47.316;-1.348;2023-08-24T04:33:16;25.10;99.90
4687;DHT22;2357;47.316;-1.348;2023-08-24T04:35:42;25.30;99.90
4687;DHT22;2357;47.316;-1.348;2023-08-24T04:38:08;25.30;99.90
4687;DHT22;2357;47.316;-1.348;2023-08-24T04:40:51;25.40;99.90
4687;DHT22;2357;47.316;-1.348;2023-08-24T04:43:18;25.20;99.90
4687;DHT22;2357;47.316;-1.348;2023-08-24T04:45:54;25.20;99.90
4687;DHT22;2357;47.316;-1.348;2023-08-24T04:48:20;25.10;99.90
4687;DHT22;2357;47.316;-1.348;2023-08-24T04:50:47;25.10;99.90
4687;DHT22;2357;47.316;-1.348;2023-08-24T04:53:17;25.10;99.90
4687;DHT22;2357;47.316;-1.348;2023-08-24T04:55:43;25.20;99.90
4687;DHT22;2357;47.316;-1.348;2023-08-24T04:58:10;25.30;99.90
4687;DHT22;2357;47.316;-1.348;2023-08-24T05:00:36;25.40;99.90
4687;DHT22;2357;47.316;-1.348;2023-08-24T05:03:03;25.40;99.90
4687;DHT22;2357;47.316;-1.348;2023-08-24T05:05:30;25.40;99.90
4687;DHT22;2357;47.316;-1.348;2023-08-24T05:07:57;25.40;99.90
4687;DHT22;2357;47.316;-1.348;2023-08-24T05:10:23;25.40;99.90
4687;DHT22;2357;47.316;-1.348;2023-08-24T05:12:49;25.40;99.90
4687;DHT22;2357;47.316;-1.348;2023-08-24T05:15:14;25.30;99.90
4687;DHT22;2357;47.316;-1.348;2023-08-24T05:17:40;25.10;99.90
4687;DHT22;2357;47.316;-1.348;2023-08-24T05:20:07;25.10;99.90
4687;DHT22;2357;47.316;-1.348;2023-08-24T05:22:41;24.70;99.90
4687;DHT22;2357;47.316;-1.348;2023-08-24T05:25:07;24.80;99.90
4687;DHT22;2357;47.316;-1.348;2023-08-24T05:27:33;24.80;99.90
4687;DHT22;2357;47.316;-1.348;2023-08-24T05:29:58;24.70;99.90
4687;DHT22;2357;47.316;-1.348;2023-08-24T05:32:24;24.70;99.90
4687;DHT22;2357;47.316;-1.348;2023-08-24T05:34:50;24.80;99.90
4687;DHT22;2357;47.316;-1.348;2023-08-24T05:37:16;24.80;99.90
4687;DHT22;2357;47.316;-1.348;2023-08-24T05:39:41;24.80;99.90
4687;DHT22;2357;47.316;-1.348;2023-08-24T05:42:08;24.80;99.90
4687;DHT22;2357;47.316;-1.348;2023-08-24T05:44:34;24.80;99.90
4687;DHT22;2357;47.316;-1.348;2023-08-24T05:47:00;24.80;99.90
4687;DHT22;2357;47.316;-1.348;2023-08-24T05:49:25;24.50;99.90
4687;DHT22;2357;47.316;-1.348;2023-08-24T05:51:52;24.50;99.90
4687;DHT22;2357;47.316;-1.348;2023-08-24T05:54:17;24.60;99.90
4687;DHT22;2357;47.316;-1.348;2023-08-24T05:56:44;24.70;99.90
4687;DHT22;2357;47.316;-1.348;2023-08-24T05:59:10;24.70;99.90
4687;DHT22;2357;47.316;-1.348;2023-08-24T06:01:36;24.70;99.90
4687;DHT22;2357;47.316;-1.348;2023-08-24T06:04:07;24.70;99.90
4687;DHT22;2357;47.316;-1.348;2023-08-24T06:06:34;24.70;99.90
4687;DHT22;2357;47.316;-1.348;2023-08-24T06:08:59;24.70;99.90
4687;DHT22;2357;47.316;-1.348;2023-08-24T06:11:25;24.70;99.90
4687;DHT22;2357;47.316;-1.348;2023-08-24T06:13:50;24.40;99.90
4687;DHT22;2357;47.316;-1.348;2023-08-24T06:16:19;24.40;99.90
4687;DHT22;2357;47.316;-1.348;2023-08-24T06:18:44;24.40;99.90
4687;DHT22;2357;47.316;-1.348;2023-08-24T06:21:10;24.40;99.90
4687;DHT22;2357;47.316;-1.348;2023-08-24T06:23:36;24.30;99.90
4687;DHT22;2357;47.316;-1.348;2023-08-24T06:26:01;24.30;99.90
4687;DHT22;2357;47.316;-1.348;2023-08-24T06:28:27;24.20;99.90
4687;DHT22;2357;47.316;-1.348;2023-08-24T06:30:55;24.10;99.90
4687;DHT22;2357;47.316;-1.348;2023-08-24T06:33:20;24.10;99.90
4687;DHT22;2357;47.316;-1.348;2023-08-24T06:35:46;24.10;99.90
4687;DHT22;2357;47.316;-1.348;2023-08-24T06:38:12;24.10;99.90
4687;DHT22;2357;47.316;-1.348;2023-08-24T06:40:39;24.10;99.90
4687;DHT22;2357;47.316;-1.348;2023-08-24T06:43:04;24.00;99.90
4687;DHT22;2357;47.316;-1.348;2023-08-24T06:45:31;23.90;99.90
4687;DHT22;2357;47.316;-1.348;2023-08-24T06:47:56;23.90;99.90
4687;DHT22;2357;47.316;-1.348;2023-08-24T06:50:22;23.90;99.90
4687;DHT22;2357;47.316;-1.348;2023-08-24T06:52:48;24.00;99.90
4687;DHT22;2357;47.316;-1.348;2023-08-24T06:55:14;23.90;99.90
4687;DHT22;2357;47.316;-1.348;2023-08-24T06:57:40;24.00;99.90
4687;DHT22;2357;47.316;-1.348;2023-08-24T07:00:06;24.00;99.90
4687;DHT22;2357;47.316;-1.348;2023-08-24T07:02:37;24.00;99.90
4687;DHT22;2357;47.316;-1.348;2023-08-24T07:05:03;23.60;99.90
4687;DHT22;2357;47.316;-1.348;2023-08-24T07:07:34;23.70;99.90
4687;DHT22;2357;47.316;-1.348;2023-08-24T07:10:00;23.90;99.90
4687;DHT22;2357;47.316;-1.348;2023-08-24T07:12:25;23.90;99.90
4687;DHT22;2357;47.316;-1.348;2023-08-24T07:14:51;23.30;99.90
4687;DHT22;2357;47.316;-1.348;2023-08-24T07:17:17;23.40;99.90
4687;DHT22;2357;47.316;-1.348;2023-08-24T07:19:43;23.60;99.90
4687;DHT22;2357;47.316;-1.348;2023-08-24T07:22:09;23.60;99.90
4687;DHT22;2357;47.316;-1.348;2023-08-24T07:24:34;23.70;99.90
4687;DHT22;2357;47.316;-1.348;2023-08-24T07:27:02;23.30;99.90
4687;DHT22;2357;47.316;-1.348;2023-08-24T07:29:29;23.20;99.90
4687;DHT22;2357;47.316;-1.348;2023-08-24T07:31:54;23.30;99.90
4687;DHT22;2357;47.316;-1.348;2023-08-24T07:34:20;23.50;99.90
4687;DHT22;2357;47.316;-1.348;2023-08-24T07:36:47;23.60;99.90
4687;DHT22;2357;47.316;-1.348;2023-08-24T07:39:14;23.60;99.90
4687;DHT22;2357;47.316;-1.348;2023-08-24T07:41:41;23.70;99.90
4687;DHT22;2357;47.316;-1.348;2023-08-24T07:44:07;23.70;99.90
4687;DHT22;2357;47.316;-1.348;2023-08-24T07:46:33;23.70;99.90
4687;DHT22;2357;47.316;-1.348;2023-08-24T07:48:58;23.70;99.90
4687;DHT22;2357;47.316;-1.348;2023-08-24T07:51:24;23.70;99.90
4687;DHT22;2357;47.316;-1.348;2023-08-24T07:53:50;23.60;99.90
4687;DHT22;2357;47.316;-1.348;2023-08-24T07:56:18;23.60;99.90
4687;DHT22;2357;47.316;-1.348;2023-08-24T07:58:44;23.70;99.90
4687;DHT22;2357;47.316;-1.348;2023-08-24T08:01:11;23.40;99.90
4687;DHT22;2357;47.316;-1.348;2023-08-24T08:03:36;23.40;99.90
4687;DHT22;2357;47.316;-1.348;2023-08-24T08:06:02;23.50;99.90
4687;DHT22;2357;47.316;-1.348;2023-08-24T08:08:28;23.50;99.90
4687;DHT22;2357;47.316;-1.348;2023-08-24T08:10:58;23.50;99.90
4687;DHT22;2357;47.316;-1.348;2023-08-24T08:13:25;23.60;99.90
4687;DHT22;2357;47.316;-1.348;2023-08-24T08:15:51;23.50;99.90
4687;DHT22;2357;47.316;-1.348;2023-08-24T08:18:16;23.50;99.90
4687;DHT22;2357;47.316;-1.348;2023-08-24T08:20:42;23.50;99.90
4687;DHT22;2357;47.316;-1.348;2023-08-24T08:23:08;23.60;99.90
4687;DHT22;2357;47.316;-1.348;2023-08-24T08:25:33;23.50;99.90
4687;DHT22;2357;47.316;-1.348;2023-08-24T08:27:59;23.20;99.90
4687;DHT22;2357;47.316;-1.348;2023-08-24T08:30:24;23.40;99.90
4687;DHT22;2357;47.316;-1.348;2023-08-24T08:32:50;23.20;99.90
4687;DHT22;2357;47.316;-1.348;2023-08-24T08:35:18;23.20;99.90
4687;DHT22;2357;47.316;-1.348;2023-08-24T08:37:44;23.00;99.90
4687;DHT22;2357;47.316;-1.348;2023-08-24T08:40:11;23.00;99.90
4687;DHT22;2357;47.316;-1.348;2023-08-24T08:42:37;23.10;99.90
4687;DHT22;2357;47.316;-1.348;2023-08-24T08:45:07;23.20;99.90
4687;DHT22;2357;47.316;-1.348;2023-08-24T08:47:34;23.20;99.90
4687;DHT22;2357;47.316;-1.348;2023-08-24T08:50:02;23.20;99.90
4687;DHT22;2357;47.316;-1.348;2023-08-24T08:52:33;23.30;99.90
4687;DHT22;2357;47.316;-1.348;2023-08-24T08:55:00;23.10;99.90
4687;DHT22;2357;47.316;-1.348;2023-08-24T08:57:25;23.30;99.90
4687;DHT22;2357;47.316;-1.348;2023-08-24T08:59:55;23.40;99.90
4687;DHT22;2357;47.316;-1.348;2023-08-24T09:02:21;23.40;99.90
4687;DHT22;2357;47.316;-1.348;2023-08-24T09:04:48;23.50;99.90
4687;DHT22;2357;47.316;-1.348;2023-08-24T09:07:16;23.50;99.90
4687;DHT22;2357;47.316;-1.348;2023-08-24T09:09:42;23.50;99.90
4687;DHT22;2357;47.316;-1.348;2023-08-24T09:12:08;23.50;99.90
4687;DHT22;2357;47.316;-1.348;2023-08-24T09:14:34;23.40;99.90
4687;DHT22;2357;47.316;-1.348;2023-08-24T09:17:00;23.30;99.90
4687;DHT22;2357;47.316;-1.348;2023-08-24T09:19:33;23.30;99.90
4687;DHT22;2357;47.316;-1.348;2023-08-24T09:22:04;23.10;99.90
4687;DHT22;2357;47.316;-1.348;2023-08-24T09:24:30;23.20;99.90
4687;DHT22;2357;47.316;-1.348;2023-08-24T09:26:57;23.30;99.90
4687;DHT22;2357;47.316;-1.348;2023-08-24T09:29:23;23.30;99.90
4687;DHT22;2357;47.316;-1.348;2023-08-24T09:31:50;23.30;99.90
4687;DHT22;2357;47.316;-1.348;2023-08-24T09:34:23;23.20;99.90
4687;DHT22;2357;47.316;-1.348;2023-08-24T09:36:51;23.20;99.90
4687;DHT22;2357;47.316;-1.348;2023-08-24T09:39:17;23.10;99.90
4687;DHT22;2357;47.316;-1.348;2023-08-24T09:41:49;23.10;99.90
4687;DHT22;2357;47.316;-1.348;2023-08-24T09:44:17;23.00;99.90
4687;DHT22;2357;47.316;-1.348;2023-08-24T09:46:42;23.00;99.90
4687;DHT22;2357;47.316;-1.348;2023-08-24T09:49:10;23.00;99.90
4687;DHT22;2357;47.316;-1.348;2023-08-24T09:51:38;23.00;99.90
4687;DHT22;2357;47.316;-1.348;2023-08-24T09:54:07;23.10;99.90
4687;DHT22;2357;47.316;-1.348;2023-08-24T09:56:38;23.10;99.90
4687;DHT22;2357;47.316;-1.348;2023-08-24T09:59:10;23.10;99.90
4687;DHT22;2357;47.316;-1.348;2023-08-24T10:01:37;23.10;99.90
4687;DHT22;2357;47.316;-1.348;2023-08-24T10:04:05;23.10;99.90
4687;DHT22;2357;47.316;-1.348;2023-08-24T10:06:31;23.20;99.90
4687;DHT22;2357;47.316;-1.348;2023-08-24T10:09:02;23.20;99.90
4687;DHT22;2357;47.316;-1.348;2023-08-24T10:11:30;23.20;99.90
4687;DHT22;2357;47.316;-1.348;2023-08-24T10:14:13;23.10;99.90
4687;DHT22;2357;47.316;-1.348;2023-08-24T10:16:41;23.10;99.90
4687;DHT22;2357;47.316;-1.348;2023-08-24T10:19:08;23.20;99.90
4687;DHT22;2357;47.316;-1.348;2023-08-24T10:21:34;23.30;99.90
4687;DHT22;2357;47.316;-1.348;2023-08-24T10:24:02;23.30;99.90
4687;DHT22;2357;47.316;-1.348;2023-08-24T10:26:27;23.40;99.90
4687;DHT22;2357;47.316;-1.348;2023-08-24T10:28:53;23.40;99.90
4687;DHT22;2357;47.316;-1.348;2023-08-24T10:31:19;23.40;99.90
4687;DHT22;2357;47.316;-1.348;2023-08-24T10:33:46;23.40;99.90
4687;DHT22;2357;47.316;-1.348;2023-08-24T10:36:15;23.50;99.90
4687;DHT22;2357;47.316;-1.348;2023-08-24T10:38:43;23.60;99.90
4687;DHT22;2357;47.316;-1.348;2023-08-24T10:41:10;23.80;99.90
4687;DHT22;2357;47.316;-1.348;2023-08-24T10:43:40;23.80;99.90
4687;DHT22;2357;47.316;-1.348;2023-08-24T10:46:13;24.00;99.90
4687;DHT22;2357;47.316;-1.348;2023-08-24T10:51:22;24.20;99.90
4687;DHT22;2357;47.316;-1.348;2023-08-24T10:53:58;24.30;99.90
4687;DHT22;2357;47.316;-1.348;2023-08-24T10:56:53;24.30;99.90
4687;DHT22;2357;47.316;-1.348;2023-08-24T10:59:20;24.40;99.90
4687;DHT22;2357;47.316;-1.348;2023-08-24T11:04:17;24.40;99.90
4687;DHT22;2357;47.316;-1.348;2023-08-24T11:06:59;24.40;99.90
4687;DHT22;2357;47.316;-1.348;2023-08-24T11:09:45;24.30;99.90
4687;DHT22;2357;47.316;-1.348;2023-08-24T11:12:11;24.30;99.90
4687;DHT22;2357;47.316;-1.348;2023-08-24T11:14:48;24.30;99.90
4687;DHT22;2357;47.316;-1.348;2023-08-24T11:17:20;24.20;99.90
4687;DHT22;2357;47.316;-1.348;2023-08-24T11:19:49;24.10;99.90
4687;DHT22;2357;47.316;-1.348;2023-08-24T11:22:16;24.10;99.90
4687;DHT22;2357;47.316;-1.348;2023-08-24T11:24:42;24.00;99.90
4687;DHT22;2357;47.316;-1.348;2023-08-24T11:27:09;24.00;99.90
4687;DHT22;2357;47.316;-1.348;2023-08-24T11:29:34;24.10;99.90
4687;DHT22;2357;47.316;-1.348;2023-08-24T11:32:00;24.20;99.90
4687;DHT22;2357;47.316;-1.348;2023-08-24T11:34:26;24.20;99.90
4687;DHT22;2357;47.316;-1.348;2023-08-24T11:36:52;24.40;99.90
4687;DHT22;2357;47.316;-1.348;2023-08-24T11:39:20;24.50;99.90
4687;DHT22;2357;47.316;-1.348;2023-08-24T11:42:04;24.70;99.90
4687;DHT22;2357;47.316;-1.348;2023-08-24T11:44:44;25.20;99.90
4687;DHT22;2357;47.316;-1.348;2023-08-24T11:47:12;25.70;99.90
4687;DHT22;2357;47.316;-1.348;2023-08-24T11:49:38;25.60;99.90
4687;DHT22;2357;47.316;-1.348;2023-08-24T11:52:04;25.20;99.90
4687;DHT22;2357;47.316;-1.348;2023-08-24T11:54:32;25.10;99.90
4687;DHT22;2357;47.316;-1.348;2023-08-24T11:56:58;24.90;99.90
4687;DHT22;2357;47.316;-1.348;2023-08-24T11:59:24;24.90;99.90
4687;DHT22;2357;47.316;-1.348;2023-08-24T12:01:51;24.80;99.90
4687;DHT22;2357;47.316;-1.348;2023-08-24T12:04:18;24.80;99.90
4687;DHT22;2357;47.316;-1.348;2023-08-24T12:06:44;24.80;99.90
4687;DHT22;2357;47.316;-1.348;2023-08-24T12:09:09;24.80;99.90
4687;DHT22;2357;47.316;-1.348;2023-08-24T12:11:36;24.80;99.90
4687;DHT22;2357;47.316;-1.348;2023-08-24T12:14:02;24.80;99.90
4687;DHT22;2357;47.316;-1.348;2023-08-24T12:16:32;25.10;99.90
4687;DHT22;2357;47.316;-1.348;2023-08-24T12:18:59;25.80;99.90
4687;DHT22;2357;47.316;-1.348;2023-08-24T12:21:26;26.40;99.90
4687;DHT22;2357;47.316;-1.348;2023-08-24T12:23:55;26.50;99.90
4687;DHT22;2357;47.316;-1.348;2023-08-24T12:26:21;27.10;99.90
4687;DHT22;2357;47.316;-1.348;2023-08-24T12:28:51;27.10;99.90
4687;DHT22;2357;47.316;-1.348;2023-08-24T12:31:18;27.10;99.90
4687;DHT22;2357;47.316;-1.348;2023-08-24T12:33:44;27.20;99.90
4687;DHT22;2357;47.316;-1.348;2023-08-24T12:36:10;27.40;99.90
4687;DHT22;2357;47.316;-1.348;2023-08-24T12:38:36;27.60;99.90
4687;DHT22;2357;47.316;-1.348;2023-08-24T12:41:03;28.00;99.90
4687;DHT22;2357;47.316;-1.348;2023-08-24T12:43:28;28.10;99.90
4687;DHT22;2357;47.316;-1.348;2023-08-24T12:45:54;28.20;99.90
4687;DHT22;2357;47.316;-1.348;2023-08-24T12:48:19;28.40;99.90
4687;DHT22;2357;47.316;-1.348;2023-08-24T12:50:45;28.60;99.90
4687;DHT22;2357;47.316;-1.348;2023-08-24T12:53:11;28.80;99.90
4687;DHT22;2357;47.316;-1.348;2023-08-24T12:55:39;28.90;99.90
4687;DHT22;2357;47.316;-1.348;2023-08-24T12:58:08;29.10;99.90
4687;DHT22;2357;47.316;-1.348;2023-08-24T13:00:34;29.20;99.90
4687;DHT22;2357;47.316;-1.348;2023-08-24T13:03:00;29.40;99.90
4687;DHT22;2357;47.316;-1.348;2023-08-24T13:05:25;29.60;99.90
4687;DHT22;2357;47.316;-1.348;2023-08-24T13:07:51;29.70;99.90
4687;DHT22;2357;47.316;-1.348;2023-08-24T13:10:17;30.00;99.90
4687;DHT22;2357;47.316;-1.348;2023-08-24T13:12:42;29.80;99.90
4687;DHT22;2357;47.316;-1.348;2023-08-24T13:15:09;29.70;99.90
4687;DHT22;2357;47.316;-1.348;2023-08-24T13:17:35;29.60;99.90
4687;DHT22;2357;47.316;-1.348;2023-08-24T13:20:00;29.70;99.90
4687;DHT22;2357;47.316;-1.348;2023-08-24T13:22:26;29.80;99.90
4687;DHT22;2357;47.316;-1.348;2023-08-24T13:24:52;29.90;99.90
4687;DHT22;2357;47.316;-1.348;2023-08-24T13:27:17;30.10;99.90
4687;DHT22;2357;47.316;-1.348;2023-08-24T13:29:43;30.20;99.90
4687;DHT22;2357;47.316;-1.348;2023-08-24T13:32:09;30.20;99.90
4687;DHT22;2357;47.316;-1.348;2023-08-24T13:34:36;30.30;99.90
4687;DHT22;2357;47.316;-1.348;2023-08-24T13:37:01;30.50;99.90
4687;DHT22;2357;47.316;-1.348;2023-08-24T13:39:27;30.70;99.90
4687;DHT22;2357;47.316;-1.348;2023-08-24T13:41:57;30.80;99.90
4687;DHT22;2357;47.316;-1.348;2023-08-24T13:44:23;30.90;99.90
4687;DHT22;2357;47.316;-1.348;2023-08-24T13:46:50;31.10;99.90
4687;DHT22;2357;47.316;-1.348;2023-08-24T13:49:17;31.10;99.90
4687;DHT22;2357;47.316;-1.348;2023-08-24T13:51:42;31.30;99.90
4687;DHT22;2357;47.316;-1.348;2023-08-24T13:54:15;31.20;99.90
4687;DHT22;2357;47.316;-1.348;2023-08-24T13:56:45;31.10;99.90
4687;DHT22;2357;47.316;-1.348;2023-08-24T13:59:11;31.10;99.90
4687;DHT22;2357;47.316;-1.348;2023-08-24T14:01:37;31.20;99.90
4687;DHT22;2357;47.316;-1.348;2023-08-24T14:04:03;30.80;99.90
4687;DHT22;2357;47.316;-1.348;2023-08-24T14:06:30;31.00;99.90
4687;DHT22;2357;47.316;-1.348;2023-08-24T14:08:57;31.20;99.90
4687;DHT22;2357;47.316;-1.348;2023-08-24T14:11:23;31.70;99.90
4687;DHT22;2357;47.316;-1.348;2023-08-24T14:13:49;32.10;99.90
4687;DHT22;2357;47.316;-1.348;2023-08-24T14:16:15;31.60;99.90
4687;DHT22;2357;47.316;-1.348;2023-08-24T14:18:40;31.40;99.90
4687;DHT22;2357;47.316;-1.348;2023-08-24T14:21:06;31.60;99.90
4687;DHT22;2357;47.316;-1.348;2023-08-24T14:23:32;31.80;99.90
4687;DHT22;2357;47.316;-1.348;2023-08-24T14:25:57;32.00;99.90
4687;DHT22;2357;47.316;-1.348;2023-08-24T14:28:23;32.20;99.90
4687;DHT22;2357;47.316;-1.348;2023-08-24T14:30:49;32.20;99.90
4687;DHT22;2357;47.316;-1.348;2023-08-24T14:33:15;32.30;99.90
4687;DHT22;2357;47.316;-1.348;2023-08-24T14:35:48;32.20;99.90
4687;DHT22;2357;47.316;-1.348;2023-08-24T14:38:14;32.30;99.90
4687;DHT22;2357;47.316;-1.348;2023-08-24T14:40:40;32.30;99.90
4687;DHT22;2357;47.316;-1.348;2023-08-24T14:43:05;32.50;99.90
4687;DHT22;2357;47.316;-1.348;2023-08-24T14:45:31;32.70;99.90
4687;DHT22;2357;47.316;-1.348;2023-08-24T14:47:56;32.70;99.90
4687;DHT22;2357;47.316;-1.348;2023-08-24T14:50:22;32.70;99.90
4687;DHT22;2357;47.316;-1.348;2023-08-24T14:52:48;32.90;99.90
4687;DHT22;2357;47.316;-1.348;2023-08-24T14:55:13;33.00;99.90
4687;DHT22;2357;47.316;-1.348;2023-08-24T14:57:39;33.20;99.90
4687;DHT22;2357;47.316;-1.348;2023-08-24T15:00:05;33.10;99.90
4687;DHT22;2357;47.316;-1.348;2023-08-24T15:02:31;33.30;99.90
4687;DHT22;2357;47.316;-1.348;2023-08-24T15:04:57;33.40;99.90
4687;DHT22;2357;47.316;-1.348;2023-08-24T15:07:23;33.40;99.90
4687;DHT22;2357;47.316;-1.348;2023-08-24T15:09:50;33.50;99.90
4687;DHT22;2357;47.316;-1.348;2023-08-24T15:12:15;33.60;99.90
4687;DHT22;2357;47.316;-1.348;2023-08-24T15:14:56;33.50;99.90
4687;DHT22;2357;47.316;-1.348;2023-08-24T15:17:22;33.60;99.90
4687;DHT22;2357;47.316;-1.348;2023-08-24T15:19:48;33.40;99.90
4687;DHT22;2357;47.316;-1.348;2023-08-24T15:22:13;33.50;99.90
4687;DHT22;2357;47.316;-1.348;2023-08-24T15:24:39;33.40;99.90
4687;DHT22;2357;47.316;-1.348;2023-08-24T15:27:05;33.40;99.90
4687;DHT22;2357;47.316;-1.348;2023-08-24T15:29:30;33.50;99.90
4687;DHT22;2357;47.316;-1.348;2023-08-24T15:31:56;33.50;99.90
4687;DHT22;2357;47.316;-1.348;2023-08-24T15:34:21;33.60;99.90
4687;DHT22;2357;47.316;-1.348;2023-08-24T15:36:47;33.40;99.90
4687;DHT22;2357;47.316;-1.348;2023-08-24T15:39:12;33.50;99.90
4687;DHT22;2357;47.316;-1.348;2023-08-24T15:41:38;33.50;99.90
4687;DHT22;2357;47.316;-1.348;2023-08-24T15:44:04;33.50;99.90
4687;DHT22;2357;47.316;-1.348;2023-08-24T15:46:30;33.60;99.90
4687;DHT22;2357;47.316;-1.348;2023-08-24T15:48:56;33.60;99.90